sensor_id;sensor_type;location;lat;lon;timestamp;pressure;altitude;pressure_sealevel;temperature;humidity
58473;BME280;44775;51.564;5.460;2023-03-03T00:00:38;102108.97;;;-0.19;100.00
58473;BME280;44775;51.564;5.460;2023-03-03T00:03:06;102127.50;;;-0.04;100.00
58473;BME280;44775;51.564;5.460;2023-03-03T00:05:32;102110.72;;;0.01;100.00
58473;BME280;44775;51.564;5.460;2023-03-03T00:07:59;102109.13;;;0.15;100.00
58473;BME280;44775;51.564;5.460;2023-03-03T00:10:24;102114.13;;;0.21;100.00
58473;BME280;44775;51.564;5.460;2023-03-03T00:12:50;102118.81;;;0.15;100.00
58473;BME280;44775;51.564;5.460;2023-03-03T00:15:21;102120.44;;;0.17;100.00
58473;BME280;44775;51.564;5.460;2023-03-03T00:17:47;102127.13;;;0.25;100.00
58473;BME280;44775;51.564;5.460;2023-03-03T00:20:36;102135.06;;;0.23;100.00
58473;BME280;44775;51.564;5.460;2023-03-03T00:23:14;102135.59;;;0.31;100.00
58473;BME280;44775;51.564;5.460;2023-03-03T00:25:45;102130.25;;;0.52;100.00
58473;BME280;44775;51.564;5.460;2023-03-03T00:28:26;102133.06;;;0.47;100.00
58473;BME280;44775;51.564;5.460;2023-03-03T00:30:53;102125.88;;;0.51;100.00
58473;BME280;44775;51.564;5.460;2023-03-03T00:35:58;102122.41;;;0.50;100.00
58473;BME280;44775;51.564;5.460;2023-03-03T00:38:27;102124.81;;;0.74;100.00
58473;BME280;44775;51.564;5.460;2023-03-03T00:40:52;102131.09;;;0.71;100.00
58473;BME280;44775;51.564;5.460;2023-03-03T00:43:23;102143.16;;;0.75;100.00
58473;BME280;44775;51.564;5.460;2023-03-03T00:45:51;102133.88;;;0.68;100.00
58473;BME280;44775;51.564;5.460;2023-03-03T00:50:55;102129.72;;;0.62;100.00
58473;BME280;44775;51.564;5.460;2023-03-03T00:53:23;102134.84;;;0.65;100.00
58473;BME280;44775;51.564;5.460;2023-03-03T00:55:50;102133.31;;;0.61;100.00
58473;BME280;44775;51.564;5.460;2023-03-03T00:58:17;102126.88;;;0.67;100.00
58473;BME280;44775;51.564;5.460;2023-03-03T01:00:47;102133.34;;;0.60;100.00
58473;BME280;44775;51.564;5.460;2023-03-03T01:03:18;102128.13;;;0.77;100.00
58473;BME280;44775;51.564;5.460;2023-03-03T01:05:45;102140.81;;;0.69;100.00
58473;BME280;44775;51.564;5.460;2023-03-03T01:08:11;102144.38;;;0.68;100.00
58473;BME280;44775;51.564;5.460;2023-03-03T01:10:44;102139.44;;;0.79;100.00
58473;BME280;44775;51.564;5.460;2023-03-03T01:13:11;102139.13;;;0.68;100.00
58473;BME280;44775;51.564;5.460;2023-03-03T01:15:38;102143.50;;;0.67;100.00
58473;BME280;44775;51.564;5.460;2023-03-03T01:18:04;102152.03;;;0.73;100.00
58473;BME280;44775;51.564;5.460;2023-03-03T01:20:29;102146.09;;;0.69;100.00
58473;BME280;44775;51.564;5.460;2023-03-03T01:22:54;102153.13;;;0.68;100.00
58473;BME280;44775;51.564;5.460;2023-03-03T01:25:20;102150.06;;;0.78;100.00
58473;BME280;44775;51.564;5.460;2023-03-03T01:27:45;102151.94;;;0.93;100.00
58473;BME280;44775;51.564;5.460;2023-03-03T01:30:10;102150.25;;;0.92;100.00
58473;BME280;44775;51.564;5.460;2023-03-03T01:32:36;102144.75;;;0.97;100.00
58473;BME280;44775;51.564;5.460;2023-03-03T01:35:01;102146.53;;;0.96;100.00
58473;BME280;44775;51.564;5.460;2023-03-03T01:37:27;102159.41;;;1.20;100.00
58473;BME280;44775;51.564;5.460;2023-03-03T01:39:53;102166.91;;;1.10;100.00
58473;BME280;44775;51.564;5.460;2023-03-03T01:42:19;102157.72;;;0.82;100.00
58473;BME280;44775;51.564;5.460;2023-03-03T01:44:45;102171.03;;;0.79;100.00
58473;BME280;44775;51.564;5.460;2023-03-03T01:47:21;102167.25;;;0.85;100.00
58473;BME280;44775;51.564;5.460;2023-03-03T01:49:57;102165.53;;;0.84;100.00
58473;BME280;44775;51.564;5.460;2023-03-03T01:52:32;102165.63;;;0.63;100.00
58473;BME280;44775;51.564;5.460;2023-03-03T01:55:03;102166.97;;;0.53;100.00
58473;BME280;44775;51.564;5.460;2023-03-03T01:57:36;102164.22;;;0.56;100.00
58473;BME280;44775;51.564;5.460;2023-03-03T02:00:04;102161.03;;;0.50;100.00
58473;BME280;44775;51.564;5.460;2023-03-03T02:02:31;102155.69;;;0.51;100.00
58473;BME280;44775;51.564;5.460;2023-03-03T02:04:56;102161.16;;;0.46;100.00
58473;BME280;44775;51.564;5.460;2023-03-03T02:07:23;102157.97;;;0.40;100.00
58473;BME280;44775;51.564;5.460;2023-03-03T02:10:00;102158.03;;;0.38;100.00
58473;BME280;44775;51.564;5.460;2023-03-03T02:12:52;102160.59;;;0.40;100.00
58473;BME280;44775;51.564;5.460;2023-03-03T02:17:44;102165.50;;;0.29;100.00
58473;BME280;44775;51.564;5.460;2023-03-03T02:28:20;102167.25;;;0.47;100.00
58473;BME280;44775;51.564;5.460;2023-03-03T02:30:46;102164.06;;;0.21;100.00
58473;BME280;44775;51.564;5.460;2023-03-03T02:33:11;102167.09;;;0.12;100.00
58473;BME280;44775;51.564;5.460;2023-03-03T02:35:38;102165.53;;;0.08;100.00
58473;BME280;44775;51.564;5.460;2023-03-03T02:38:24;102163.84;;;0.07;100.00
58473;BME280;44775;51.564;5.460;2023-03-03T02:41:02;102165.28;;;0.33;100.00
58473;BME280;44775;51.564;5.460;2023-03-03T02:43:41;102148.94;;;0.27;100.00
58473;BME280;44775;51.564;5.460;2023-03-03T02:46:09;102157.13;;;0.20;100.00
58473;BME280;44775;51.564;5.460;2023-03-03T02:48:35;102158.44;;;0.29;100.00
58473;BME280;44775;51.564;5.460;2023-03-03T02:51:00;102155.38;;;0.19;100.00
58473;BME280;44775;51.564;5.460;2023-03-03T02:53:25;102163.72;;;0.29;100.00
58473;BME280;44775;51.564;5.460;2023-03-03T02:55:51;102156.09;;;0.23;100.00
58473;BME280;44775;51.564;5.460;2023-03-03T02:58:16;102155.06;;;0.07;100.00
58473;BME280;44775;51.564;5.460;2023-03-03T03:00:41;102162.91;;;0.08;100.00
58473;BME280;44775;51.564;5.460;2023-03-03T03:03:07;102163.13;;;0.22;100.00
58473;BME280;44775;51.564;5.460;2023-03-03T03:05:32;102159.81;;;0.38;100.00
58473;BME280;44775;51.564;5.460;2023-03-03T03:07:57;102169.13;;;0.45;100.00
58473;BME280;44775;51.564;5.460;2023-03-03T03:10:22;102162.00;;;0.47;100.00
58473;BME280;44775;51.564;5.460;2023-03-03T03:12:48;102163.56;;;0.32;100.00
58473;BME280;44775;51.564;5.460;2023-03-03T03:15:13;102164.16;;;0.58;100.00
58473;BME280;44775;51.564;5.460;2023-03-03T03:17:40;102173.72;;;0.40;100.00
58473;BME280;44775;51.564;5.460;2023-03-03T03:20:06;102161.44;;;0.21;100.00
58473;BME280;44775;51.564;5.460;2023-03-03T03:22:31;102177.34;;;0.18;100.00
58473;BME280;44775;51.564;5.460;2023-03-03T03:24:56;102173.78;;;0.19;100.00
58473;BME280;44775;51.564;5.460;2023-03-03T03:27:22;102168.00;;;0.32;100.00
58473;BME280;44775;51.564;5.460;2023-03-03T03:29:47;102178.88;;;0.24;100.00
58473;BME280;44775;51.564;5.460;2023-03-03T03:32:12;102176.63;;;0.34;100.00
58473;BME280;44775;51.564;5.460;2023-03-03T03:34:38;102173.25;;;0.32;100.00
58473;BME280;44775;51.564;5.460;2023-03-03T03:37:03;102171.19;;;0.38;100.00
58473;BME280;44775;51.564;5.460;2023-03-03T03:39:28;102173.16;;;0.33;100.00
58473;BME280;44775;51.564;5.460;2023-03-03T03:41:54;102168.63;;;0.37;100.00
58473;BME280;44775;51.564;5.460;2023-03-03T03:44:19;102178.38;;;0.35;100.00
58473;BME280;44775;51.564;5.460;2023-03-03T03:46:44;102178.41;;;0.33;100.00
58473;BME280;44775;51.564;5.460;2023-03-03T03:49:09;102181.53;;;0.22;100.00
58473;BME280;44775;51.564;5.460;2023-03-03T03:51:35;102188.66;;;0.20;100.00
58473;BME280;44775;51.564;5.460;2023-03-03T03:54:02;102187.53;;;0.45;100.00
58473;BME280;44775;51.564;5.460;2023-03-03T03:56:28;102179.84;;;0.40;100.00
58473;BME280;44775;51.564;5.460;2023-03-03T03:58:53;102185.88;;;0.23;100.00
58473;BME280;44775;51.564;5.460;2023-03-03T04:01:18;102190.13;;;0.26;100.00
58473;BME280;44775;51.564;5.460;2023-03-03T04:03:44;102185.41;;;-0.05;100.00
58473;BME280;44775;51.564;5.460;2023-03-03T04:06:09;102187.06;;;0.16;100.00
58473;BME280;44775;51.564;5.460;2023-03-03T04:08:34;102195.66;;;0.20;100.00
58473;BME280;44775;51.564;5.460;2023-03-03T04:10:59;102187.81;;;-0.01;100.00
58473;BME280;44775;51.564;5.460;2023-03-03T04:13:25;102196.00;;;-0.07;100.00
58473;BME280;44775;51.564;5.460;2023-03-03T04:15:53;102187.22;;;-0.07;100.00
58473;BME280;44775;51.564;5.460;2023-03-03T04:18:18;102192.44;;;-0.06;100.00
58473;BME280;44775;51.564;5.460;2023-03-03T04:20:43;102186.84;;;0.02;100.00
58473;BME280;44775;51.564;5.460;2023-03-03T04:23:08;102189.84;;;0.13;100.00
58473;BME280;44775;51.564;5.460;2023-03-03T04:25:34;102189.06;;;0.11;100.00
58473;BME280;44775;51.564;5.460;2023-03-03T04:28:00;102192.81;;;0.45;100.00
58473;BME280;44775;51.564;5.460;2023-03-03T04:30:25;102195.84;;;0.36;100.00
58473;BME280;44775;51.564;5.460;2023-03-03T04:32:51;102190.13;;;0.07;100.00
58473;BME280;44775;51.564;5.460;2023-03-03T04:35:17;102191.09;;;0.05;100.00
58473;BME280;44775;51.564;5.460;2023-03-03T04:37:42;102189.41;;;0.04;100.00
58473;BME280;44775;51.564;5.460;2023-03-03T04:40:09;102199.81;;;0.26;100.00
58473;BME280;44775;51.564;5.460;2023-03-03T04:42:34;102202.06;;;0.14;100.00
58473;BME280;44775;51.564;5.460;2023-03-03T04:45:00;102199.09;;;0.22;100.00
58473;BME280;44775;51.564;5.460;2023-03-03T04:47:25;102198.13;;;0.43;100.00
58473;BME280;44775;51.564;5.460;2023-03-03T04:49:51;102193.13;;;0.18;100.00
58473;BME280;44775;51.564;5.460;2023-03-03T04:52:16;102205.59;;;0.13;100.00
58473;BME280;44775;51.564;5.460;2023-03-03T04:54:41;102177.97;;;0.23;100.00
58473;BME280;44775;51.564;5.460;2023-03-03T04:57:07;102187.59;;;0.25;100.00
58473;BME280;44775;51.564;5.460;2023-03-03T04:59:33;102193.25;;;0.15;100.00
58473;BME280;44775;51.564;5.460;2023-03-03T05:01:59;102199.75;;;0.27;100.00
58473;BME280;44775;51.564;5.460;2023-03-03T05:04:24;102190.91;;;0.09;100.00
58473;BME280;44775;51.564;5.460;2023-03-03T05:06:49;102191.81;;;0.08;100.00
58473;BME280;44775;51.564;5.460;2023-03-03T05:09:15;102194.09;;;0.16;100.00
58473;BME280;44775;51.564;5.460;2023-03-03T05:11:41;102196.47;;;0.22;100.00
58473;BME280;44775;51.564;5.460;2023-03-03T05:14:06;102199.19;;;0.20;100.00
58473;BME280;44775;51.564;5.460;2023-03-03T05:16:32;102205.34;;;0.19;100.00
58473;BME280;44775;51.564;5.460;2023-03-03T05:18:57;102207.19;;;0.17;100.00
58473;BME280;44775;51.564;5.460;2023-03-03T05:21:23;102199.22;;;0.19;100.00
58473;BME280;44775;51.564;5.460;2023-03-03T05:23:48;102209.06;;;0.34;100.00
58473;BME280;44775;51.564;5.460;2023-03-03T05:26:13;102199.28;;;0.38;100.00
58473;BME280;44775;51.564;5.460;2023-03-03T05:28:39;102199.53;;;0.32;100.00
58473;BME280;44775;51.564;5.460;2023-03-03T05:31:04;102204.38;;;0.41;100.00
58473;BME280;44775;51.564;5.460;2023-03-03T05:33:29;102205.56;;;0.90;100.00
58473;BME280;44775;51.564;5.460;2023-03-03T05:35:55;102210.34;;;0.63;100.00
58473;BME280;44775;51.564;5.460;2023-03-03T05:38:22;102218.31;;;0.43;100.00
58473;BME280;44775;51.564;5.460;2023-03-03T05:40:48;102214.47;;;0.50;100.00
58473;BME280;44775;51.564;5.460;2023-03-03T05:43:13;102218.16;;;0.46;100.00
58473;BME280;44775;51.564;5.460;2023-03-03T05:45:38;102208.78;;;0.40;100.00
58473;BME280;44775;51.564;5.460;2023-03-03T05:48:04;102208.63;;;0.43;100.00
58473;BME280;44775;51.564;5.460;2023-03-03T05:50:30;102211.69;;;0.53;100.00
58473;BME280;44775;51.564;5.460;2023-03-03T05:52:56;102206.59;;;0.69;100.00
58473;BME280;44775;51.564;5.460;2023-03-03T05:55:22;102217.03;;;0.52;100.00
58473;BME280;44775;51.564;5.460;2023-03-03T05:57:47;102203.91;;;0.52;100.00
58473;BME280;44775;51.564;5.460;2023-03-03T06:00:13;102213.91;;;0.62;100.00
58473;BME280;44775;51.564;5.460;2023-03-03T06:02:40;102219.19;;;0.62;100.00
58473;BME280;44775;51.564;5.460;2023-03-03T06:05:06;102208.66;;;0.62;100.00
58473;BME280;44775;51.564;5.460;2023-03-03T06:07:32;102220.38;;;0.55;100.00
58473;BME280;44775;51.564;5.460;2023-03-03T06:09:57;102221.16;;;0.57;100.00
58473;BME280;44775;51.564;5.460;2023-03-03T06:12:22;102220.81;;;0.65;100.00
58473;BME280;44775;51.564;5.460;2023-03-03T06:14:48;102217.34;;;0.64;100.00
58473;BME280;44775;51.564;5.460;2023-03-03T06:17:13;102224.22;;;0.67;100.00
58473;BME280;44775;51.564;5.460;2023-03-03T06:19:38;102225.03;;;0.88;100.00
58473;BME280;44775;51.564;5.460;2023-03-03T06:22:06;102223.09;;;0.91;100.00
58473;BME280;44775;51.564;5.460;2023-03-03T06:24:31;102230.00;;;0.75;100.00
58473;BME280;44775;51.564;5.460;2023-03-03T06:26:57;102230.28;;;0.69;100.00
58473;BME280;44775;51.564;5.460;2023-03-03T06:29:22;102235.97;;;0.79;100.00
58473;BME280;44775;51.564;5.460;2023-03-03T06:31:47;102245.69;;;0.77;100.00
58473;BME280;44775;51.564;5.460;2023-03-03T06:34:13;102239.34;;;0.81;100.00
58473;BME280;44775;51.564;5.460;2023-03-03T06:36:38;102255.84;;;0.84;100.00
58473;BME280;44775;51.564;5.460;2023-03-03T06:39:04;102249.31;;;0.93;100.00
58473;BME280;44775;51.564;5.460;2023-03-03T06:41:29;102262.25;;;1.16;100.00
58473;BME280;44775;51.564;5.460;2023-03-03T06:43:55;102257.13;;;1.13;100.00
58473;BME280;44775;51.564;5.460;2023-03-03T06:46:20;102268.97;;;1.41;100.00
58473;BME280;44775;51.564;5.460;2023-03-03T06:48:46;102269.50;;;1.11;100.00
58473;BME280;44775;51.564;5.460;2023-03-03T06:51:32;102277.50;;;1.10;100.00
58473;BME280;44775;51.564;5.460;2023-03-03T06:54:01;102265.81;;;0.97;100.00
58473;BME280;44775;51.564;5.460;2023-03-03T06:56:27;102282.38;;;1.17;100.00
58473;BME280;44775;51.564;5.460;2023-03-03T06:58:57;102281.19;;;1.06;100.00
58473;BME280;44775;51.564;5.460;2023-03-03T07:01:23;102275.13;;;1.04;100.00
58473;BME280;44775;51.564;5.460;2023-03-03T07:03:49;102275.94;;;1.06;100.00
58473;BME280;44775;51.564;5.460;2023-03-03T07:06:22;102277.81;;;1.21;100.00
58473;BME280;44775;51.564;5.460;2023-03-03T07:08:50;102278.94;;;1.34;100.00
58473;BME280;44775;51.564;5.460;2023-03-03T07:11:18;102289.84;;;1.46;100.00
58473;BME280;44775;51.564;5.460;2023-03-03T07:13:52;102281.66;;;1.69;100.00
58473;BME280;44775;51.564;5.460;2023-03-03T07:16:24;102288.06;;;1.46;100.00
58473;BME280;44775;51.564;5.460;2023-03-03T07:18:56;102282.59;;;1.32;100.00
58473;BME280;44775;51.564;5.460;2023-03-03T07:21:27;102281.94;;;1.27;100.00
58473;BME280;44775;51.564;5.460;2023-03-03T07:23:55;102286.38;;;1.26;100.00
58473;BME280;44775;51.564;5.460;2023-03-03T07:26:27;102292.06;;;1.36;100.00
58473;BME280;44775;51.564;5.460;2023-03-03T07:29:15;102292.75;;;1.39;100.00
58473;BME280;44775;51.564;5.460;2023-03-03T07:31:45;102290.84;;;1.43;100.00
58473;BME280;44775;51.564;5.460;2023-03-03T07:34:37;102307.56;;;1.42;100.00
58473;BME280;44775;51.564;5.460;2023-03-03T07:37:15;102308.03;;;1.50;100.00
58473;BME280;44775;51.564;5.460;2023-03-03T07:39:43;102310.53;;;1.53;100.00
58473;BME280;44775;51.564;5.460;2023-03-03T07:44:57;102312.59;;;1.65;100.00
58473;BME280;44775;51.564;5.460;2023-03-03T07:47:25;102315.22;;;1.65;100.00
58473;BME280;44775;51.564;5.460;2023-03-03T07:49:54;102321.09;;;1.71;100.00
58473;BME280;44775;51.564;5.460;2023-03-03T07:52:39;102320.72;;;1.78;100.00
58473;BME280;44775;51.564;5.460;2023-03-03T07:55:34;102326.69;;;1.82;100.00
58473;BME280;44775;51.564;5.460;2023-03-03T08:03:44;102330.66;;;2.08;100.00
58473;BME280;44775;51.564;5.460;2023-03-03T08:11:41;102327.56;;;2.34;100.00
58473;BME280;44775;51.564;5.460;2023-03-03T08:14:14;102342.22;;;2.40;100.00
58473;BME280;44775;51.564;5.460;2023-03-03T08:16:40;102341.34;;;2.40;100.00
58473;BME280;44775;51.564;5.460;2023-03-03T08:19:05;102350.59;;;2.48;100.00
58473;BME280;44775;51.564;5.460;2023-03-03T08:21:32;102347.94;;;2.48;100.00
58473;BME280;44775;51.564;5.460;2023-03-03T08:23:59;102353.66;;;2.56;100.00
58473;BME280;44775;51.564;5.460;2023-03-03T08:26:25;102360.53;;;2.60;100.00
58473;BME280;44775;51.564;5.460;2023-03-03T08:28:52;102344.97;;;2.72;100.00
58473;BME280;44775;51.564;5.460;2023-03-03T08:31:18;102360.22;;;2.67;100.00
58473;BME280;44775;51.564;5.460;2023-03-03T08:33:45;102355.63;;;2.70;100.00
58473;BME280;44775;51.564;5.460;2023-03-03T08:36:10;102355.78;;;2.83;100.00
58473;BME280;44775;51.564;5.460;2023-03-03T08:38:37;102359.44;;;2.98;100.00
58473;BME280;44775;51.564;5.460;2023-03-03T08:41:02;102364.44;;;3.02;100.00
58473;BME280;44775;51.564;5.460;2023-03-03T08:43:28;102364.38;;;3.04;100.00
58473;BME280;44775;51.564;5.460;2023-03-03T08:45:57;102369.19;;;2.96;100.00
58473;BME280;44775;51.564;5.460;2023-03-03T08:48:23;102367.94;;;3.03;100.00
58473;BME280;44775;51.564;5.460;2023-03-03T08:50:49;102373.69;;;3.11;100.00
58473;BME280;44775;51.564;5.460;2023-03-03T08:53:15;102372.91;;;3.09;100.00
58473;BME280;44775;51.564;5.460;2023-03-03T08:55:41;102383.50;;;3.25;100.00
58473;BME280;44775;51.564;5.460;2023-03-03T08:58:07;102345.63;;;3.08;100.00
58473;BME280;44775;51.564;5.460;2023-03-03T09:00:32;102380.44;;;3.48;100.00
58473;BME280;44775;51.564;5.460;2023-03-03T09:02:58;102382.13;;;3.49;100.00
58473;BME280;44775;51.564;5.460;2023-03-03T09:05:24;102385.41;;;3.54;100.00
58473;BME280;44775;51.564;5.460;2023-03-03T09:07:50;102392.72;;;3.49;100.00
58473;BME280;44775;51.564;5.460;2023-03-03T09:10:19;102388.28;;;3.50;100.00
58473;BME280;44775;51.564;5.460;2023-03-03T09:12:53;102386.06;;;3.58;100.00
58473;BME280;44775;51.564;5.460;2023-03-03T09:15:47;102385.19;;;3.73;100.00
58473;BME280;44775;51.564;5.460;2023-03-03T09:18:21;102395.94;;;3.39;100.00
58473;BME280;44775;51.564;5.460;2023-03-03T09:20:51;102387.84;;;3.42;100.00
58473;BME280;44775;51.564;5.460;2023-03-03T09:25:57;102395.63;;;3.45;100.00
58473;BME280;44775;51.564;5.460;2023-03-03T09:28:27;102397.31;;;3.46;100.00
58473;BME280;44775;51.564;5.460;2023-03-03T09:30:54;102398.78;;;3.51;100.00
58473;BME280;44775;51.564;5.460;2023-03-03T09:33:40;102399.13;;;3.61;100.00
58473;BME280;44775;51.564;5.460;2023-03-03T09:36:25;102395.44;;;3.64;100.00
58473;BME280;44775;51.564;5.460;2023-03-03T09:38:53;102401.06;;;3.73;100.00
58473;BME280;44775;51.564;5.460;2023-03-03T09:41:41;102398.06;;;3.79;100.00
58473;BME280;44775;51.564;5.460;2023-03-03T09:44:26;102403.59;;;3.91;100.00
58473;BME280;44775;51.564;5.460;2023-03-03T09:46:59;102404.44;;;3.91;100.00
58473;BME280;44775;51.564;5.460;2023-03-03T09:55:00;102416.88;;;4.21;98.70
58473;BME280;44775;51.564;5.460;2023-03-03T10:06:56;102408.00;;;4.22;100.00
58473;BME280;44775;51.564;5.460;2023-03-03T10:09:51;102416.19;;;4.47;99.86
58473;BME280;44775;51.564;5.460;2023-03-03T10:12:34;102413.69;;;4.60;100.00
58473;BME280;44775;51.564;5.460;2023-03-03T10:15:15;102408.94;;;4.65;97.55
58473;BME280;44775;51.564;5.460;2023-03-03T10:20:57;102417.59;;;4.97;95.72
58473;BME280;44775;51.564;5.460;2023-03-03T10:23:55;102417.59;;;4.97;97.09
58473;BME280;44775;51.564;5.460;2023-03-03T10:26:50;102424.53;;;5.14;96.28
58473;BME280;44775;51.564;5.460;2023-03-03T10:37:23;102415.41;;;5.33;93.06
58473;BME280;44775;51.564;5.460;2023-03-03T10:40:06;102417.03;;;5.35;92.81
58473;BME280;44775;51.564;5.460;2023-03-03T10:42:58;102412.47;;;5.52;94.37
58473;BME280;44775;51.564;5.460;2023-03-03T10:46:05;102415.66;;;5.71;93.38
58473;BME280;44775;51.564;5.460;2023-03-03T10:57:43;102418.44;;;5.97;88.62
58473;BME280;44775;51.564;5.460;2023-03-03T11:00:29;102412.47;;;5.93;88.68
58473;BME280;44775;51.564;5.460;2023-03-03T11:03:13;102423.91;;;6.08;88.72
58473;BME280;44775;51.564;5.460;2023-03-03T11:05:59;102416.84;;;6.34;87.35
58473;BME280;44775;51.564;5.460;2023-03-03T11:08:51;102420.16;;;6.37;85.99
58473;BME280;44775;51.564;5.460;2023-03-03T11:13:46;102413.09;;;6.63;86.69
58473;BME280;44775;51.564;5.460;2023-03-03T11:27:03;102410.34;;;7.03;81.52
58473;BME280;44775;51.564;5.460;2023-03-03T11:32:40;102416.00;;;6.99;81.52
58473;BME280;44775;51.564;5.460;2023-03-03T11:35:34;102398.75;;;6.92;81.80
58473;BME280;44775;51.564;5.460;2023-03-03T11:40:33;102413.00;;;7.16;81.38
58473;BME280;44775;51.564;5.460;2023-03-03T11:43:15;102401.47;;;7.28;80.53
58473;BME280;44775;51.564;5.460;2023-03-03T11:45:45;102412.78;;;7.19;79.64
58473;BME280;44775;51.564;5.460;2023-03-03T11:48:18;102410.44;;;7.02;81.41
58473;BME280;44775;51.564;5.460;2023-03-03T11:50:57;102410.44;;;7.02;81.06
58473;BME280;44775;51.564;5.460;2023-03-03T11:56:26;102407.34;;;7.94;75.95
58473;BME280;44775;51.564;5.460;2023-03-03T11:58:59;102400.81;;;7.74;75.48
58473;BME280;44775;51.564;5.460;2023-03-03T12:01:38;102399.19;;;7.85;74.77
58473;BME280;44775;51.564;5.460;2023-03-03T12:04:28;102403.41;;;8.35;74.54
58473;BME280;44775;51.564;5.460;2023-03-03T12:07:24;102396.56;;;9.02;71.08
58473;BME280;44775;51.564;5.460;2023-03-03T12:10:10;102392.41;;;9.42;67.86
58473;BME280;44775;51.564;5.460;2023-03-03T12:12:50;102385.66;;;9.70;66.40
58473;BME280;44775;51.564;5.460;2023-03-03T12:18:10;102389.16;;;10.14;63.29
58473;BME280;44775;51.564;5.460;2023-03-03T12:23:40;102388.16;;;11.30;59.79
58473;BME280;44775;51.564;5.460;2023-03-03T12:26:14;102390.78;;;11.41;57.42
58473;BME280;44775;51.564;5.460;2023-03-03T12:28:48;102385.16;;;11.44;57.24
58473;BME280;44775;51.564;5.460;2023-03-03T12:31:52;102394.09;;;11.24;58.12
58473;BME280;44775;51.564;5.460;2023-03-03T12:34:26;102379.28;;;10.89;58.53
58473;BME280;44775;51.564;5.460;2023-03-03T12:37:01;102381.06;;;10.58;58.98
58473;BME280;44775;51.564;5.460;2023-03-03T12:39:49;102374.25;;;10.44;59.58
58473;BME280;44775;51.564;5.460;2023-03-03T12:42:24;102366.75;;;9.74;60.62
58473;BME280;44775;51.564;5.460;2023-03-03T12:45:28;102374.59;;;9.86;60.37
58473;BME280;44775;51.564;5.460;2023-03-03T12:47:55;102369.28;;;10.07;60.40
58473;BME280;44775;51.564;5.460;2023-03-03T12:50:51;102359.88;;;10.45;60.47
58473;BME280;44775;51.564;5.460;2023-03-03T12:58:38;102364.47;;;12.63;55.30
58473;BME280;44775;51.564;5.460;2023-03-03T13:01:18;102355.06;;;12.86;53.72
58473;BME280;44775;51.564;5.460;2023-03-03T13:09:21;102352.03;;;13.36;51.21
58473;BME280;44775;51.564;5.460;2023-03-03T13:14:42;102350.63;;;13.96;48.63
58473;BME280;44775;51.564;5.460;2023-03-03T13:17:20;102350.09;;;13.92;48.87
58473;BME280;44775;51.564;5.460;2023-03-03T13:19:55;102344.69;;;13.56;48.84
58473;BME280;44775;51.564;5.460;2023-03-03T13:25:06;102347.44;;;12.25;51.61
58473;BME280;44775;51.564;5.460;2023-03-03T13:27:40;102344.63;;;12.17;55.75
58473;BME280;44775;51.564;5.460;2023-03-03T13:30:22;102335.25;;;12.60;52.68
58473;BME280;44775;51.564;5.460;2023-03-03T13:33:14;102335.28;;;13.25;50.81
58473;BME280;44775;51.564;5.460;2023-03-03T13:35:53;102340.50;;;13.72;48.24
58473;BME280;44775;51.564;5.460;2023-03-03T13:38:24;102343.34;;;13.88;46.92
58473;BME280;44775;51.564;5.460;2023-03-03T13:43:37;102337.19;;;13.96;47.12
58473;BME280;44775;51.564;5.460;2023-03-03T13:46:26;102337.16;;;13.60;52.07
58473;BME280;44775;51.564;5.460;2023-03-03T13:52:06;102332.19;;;13.47;51.16
58473;BME280;44775;51.564;5.460;2023-03-03T13:54:58;102321.03;;;13.42;51.32
58473;BME280;44775;51.564;5.460;2023-03-03T14:03:00;102326.44;;;14.39;47.55
58473;BME280;44775;51.564;5.460;2023-03-03T14:10:35;102315.72;;;12.77;48.93
58473;BME280;44775;51.564;5.460;2023-03-03T14:13:12;102325.63;;;12.67;48.72
58473;BME280;44775;51.564;5.460;2023-03-03T14:16:06;102309.63;;;12.75;50.93
58473;BME280;44775;51.564;5.460;2023-03-03T14:18:54;102319.25;;;12.68;51.93
58473;BME280;44775;51.564;5.460;2023-03-03T14:21:28;102320.13;;;12.59;50.73
58473;BME280;44775;51.564;5.460;2023-03-03T14:24:15;102312.16;;;12.39;50.76
58473;BME280;44775;51.564;5.460;2023-03-03T14:26:52;102313.59;;;12.04;49.05
58473;BME280;44775;51.564;5.460;2023-03-03T14:31:48;102297.78;;;11.63;51.79
58473;BME280;44775;51.564;5.460;2023-03-03T14:36:50;102300.56;;;11.22;53.73
58473;BME280;44775;51.564;5.460;2023-03-03T14:41:59;102304.69;;;10.96;53.97
58473;BME280;44775;51.564;5.460;2023-03-03T14:44:52;102303.28;;;10.92;54.08
58473;BME280;44775;51.564;5.460;2023-03-03T14:47:23;102303.50;;;10.79;55.03
58473;BME280;44775;51.564;5.460;2023-03-03T14:49:50;102303.97;;;10.53;53.90
58473;BME280;44775;51.564;5.460;2023-03-03T14:54:53;102291.47;;;10.33;60.64
58473;BME280;44775;51.564;5.460;2023-03-03T15:03:12;102283.59;;;9.78;58.92
58473;BME280;44775;51.564;5.460;2023-03-03T15:05:30;102279.78;;;9.60;57.92
58473;BME280;44775;51.564;5.460;2023-03-03T15:10:43;102280.41;;;9.84;62.37
58473;BME280;44775;51.564;5.460;2023-03-03T15:13:34;102277.88;;;10.46;59.80
58473;BME280;44775;51.564;5.460;2023-03-03T15:16:16;102270.81;;;11.16;56.43
58473;BME280;44775;51.564;5.460;2023-03-03T15:19:09;102257.63;;;11.82;53.14
58473;BME280;44775;51.564;5.460;2023-03-03T15:21:52;102260.41;;;12.29;51.64
58473;BME280;44775;51.564;5.460;2023-03-03T15:24:57;102261.63;;;12.35;50.75
58473;BME280;44775;51.564;5.460;2023-03-03T15:27:31;102265.31;;;12.34;51.25
58473;BME280;44775;51.564;5.460;2023-03-03T15:30:14;102261.34;;;12.38;48.56
58473;BME280;44775;51.564;5.460;2023-03-03T15:32:52;102262.19;;;12.38;49.63
58473;BME280;44775;51.564;5.460;2023-03-03T15:35:33;102260.69;;;12.26;49.38
58473;BME280;44775;51.564;5.460;2023-03-03T15:38:17;102258.31;;;11.74;51.64